createdAt,value
2018-08-22T00:00:23.611Z,27.8
2018-08-22T00:10:38.192Z,28.8
2018-08-22T00:20:53.879Z,27.5
2018-08-22T00:31:08.064Z,25.2
2018-08-22T00:41:22.399Z,25.7
2018-08-22T00:51:36.567Z,27
2018-08-22T01:01:51.259Z,27.5
2018-08-22T01:12:05.509Z,35
2018-08-22T01:22:20.645Z,32
2018-08-22T01:32:34.933Z,30.2
2018-08-22T01:42:50.065Z,33.3
2018-08-22T01:53:04.891Z,31.6
2018-08-22T02:03:20.604Z,29.7
2018-08-22T02:13:34.863Z,28.7
2018-08-22T02:23:48.934Z,28.6
2018-08-22T02:34:03.950Z,27.7
2018-08-22T02:44:18.842Z,23.8
2018-08-22T02:54:33.412Z,21.6
2018-08-22T03:04:47.768Z,20
2018-08-22T03:15:01.685Z,17.6
2018-08-22T03:25:16.188Z,15.1
2018-08-22T03:35:30.648Z,15
2018-08-22T03:45:45.364Z,23.1
2018-08-22T03:55:59.935Z,22.1
2018-08-22T04:06:15.014Z,18.9
2018-08-22T04:16:30.317Z,12.5
2018-08-22T04:26:45.154Z,9.6
2018-08-22T04:37:00.121Z,7.1
2018-08-22T04:47:14.627Z,5.9
2018-08-22T04:57:28.396Z,6.5
2018-08-22T05:07:42.976Z,9.8
2018-08-22T05:17:58.694Z,14.1
2018-08-22T05:28:12.706Z,17.6
2018-08-22T05:38:27.392Z,22.6
2018-08-22T05:48:41.756Z,28.6
2018-08-22T05:58:55.803Z,42.2
2018-08-22T06:09:10.968Z,47.5
2018-08-22T06:19:25.606Z,59
2018-08-22T06:29:40.743Z,66.9
2018-08-22T06:39:55.241Z,77
2018-08-22T06:50:10.973Z,81
2018-08-22T07:00:25.862Z,88.9
2018-08-22T07:10:40.153Z,87.2
2018-08-22T07:20:55.263Z,86.5
2018-08-22T07:31:09.261Z,89.1
2018-08-22T07:41:23.573Z,97.3
2018-08-22T07:51:38.416Z,92.9
2018-08-22T08:01:53.380Z,92.7
2018-08-22T08:12:08.427Z,91.1
2018-08-22T08:22:22.733Z,87
2018-08-22T08:32:37.644Z,83.3
2018-08-22T08:42:52.593Z,82.1
2018-08-22T08:53:06.841Z,78.4
2018-08-22T09:03:21.609Z,75.2
2018-08-22T09:13:36.347Z,72.8
2018-08-22T09:23:51.745Z,71.7
2018-08-22T09:34:05.971Z,70
2018-08-22T09:44:21.650Z,69.1
2018-08-22T09:54:37.436Z,66.9
2018-08-22T10:04:51.862Z,66.7
2018-08-22T10:15:06.115Z,65.6
2018-08-22T10:25:21.620Z,64.9
2018-08-22T10:35:36.269Z,64.1
2018-08-22T10:45:50.316Z,62.4
2018-08-22T10:56:05.301Z,63.2
2018-08-22T11:06:20.531Z,62.9
2018-08-22T11:16:36.273Z,63
2018-08-22T11:26:51.697Z,61.2
2018-08-22T11:37:05.775Z,61
2018-08-22T11:47:20.690Z,60.9
2018-08-22T11:57:34.641Z,60.4
2018-08-22T12:07:49.948Z,59.9
2018-08-22T12:18:05.250Z,58
2018-08-22T12:28:19.604Z,59.7
2018-08-22T12:38:34.374Z,57.7
2018-08-22T12:48:50.084Z,57.4
2018-08-22T12:59:05.788Z,56.9
2018-08-22T13:09:21.108Z,56.8
2018-08-22T13:19:35.404Z,58.7
2018-08-22T13:29:49.995Z,57.3
2018-08-22T13:40:05.814Z,55.9
2018-08-22T13:50:20.066Z,55.4
2018-08-22T14:00:35.583Z,56.7
2018-08-22T14:10:50.665Z,55.9
2018-08-22T14:21:04.940Z,55.4
2018-08-22T14:31:19.831Z,54.9
2018-08-22T14:41:34.596Z,56.9
2018-08-22T14:51:49.653Z,56.5
2018-08-22T15:02:03.855Z,56.2
2018-08-22T15:12:18.729Z,56.8
2018-08-22T15:22:32.667Z,57.1
2018-08-22T15:32:47.141Z,56.4
2018-08-22T15:43:01.604Z,56.4
2018-08-22T15:53:16.611Z,57.3
2018-08-22T16:03:32.006Z,59
2018-08-22T16:13:46.994Z,59.4
2018-08-22T16:24:01.385Z,59.4
2018-08-22T16:34:15.499Z,59.6
2018-08-22T16:44:29.916Z,60.1
2018-08-22T16:54:45.071Z,60.5
2018-08-22T17:04:59.669Z,61.3
2018-08-22T17:15:15.403Z,62.1
2018-08-22T17:25:30.669Z,63.6
2018-08-22T17:35:45.966Z,66.5
2018-08-22T17:46:01.301Z,69.1
2018-08-22T17:56:15.841Z,71.7
2018-08-22T18:06:30.539Z,74.3
2018-08-22T18:16:44.723Z,75.8
2018-08-22T18:27:00.393Z,76.8
2018-08-22T18:37:14.361Z,75.9
2018-08-22T18:47:30.017Z,74.2
2018-08-22T18:57:45.289Z,69.4
2018-08-22T19:08:00.693Z,70.6
2018-08-22T19:18:15.051Z,66.5
2018-08-22T19:28:28.940Z,60.2
2018-08-22T19:38:44.295Z,53
2018-08-22T19:48:58.379Z,46
2018-08-22T19:59:13.841Z,40.5
2018-08-22T20:09:29.761Z,44.1
2018-08-22T20:19:45.310Z,51.8
2018-08-22T20:30:00.507Z,44.1
2018-08-22T20:40:15.919Z,38.9
2018-08-22T20:50:31.439Z,33.9
2018-08-22T21:00:46.414Z,30.4
2018-08-22T21:11:01.952Z,28.1
2018-08-22T21:21:17.704Z,22.9
2018-08-22T21:31:32.519Z,19.6
2018-08-22T21:41:46.751Z,16
2018-08-22T21:52:01.834Z,19
2018-08-22T22:02:15.814Z,21.4
2018-08-22T22:12:31.287Z,13.4
2018-08-22T22:22:45.736Z,9.5
2018-08-22T22:33:01.162Z,5.8
2018-08-22T22:43:16.182Z,3.4
2018-08-22T22:53:30.436Z,0.8
2018-08-22T23:03:45.642Z,0
2018-08-22T23:13:59.905Z,0
2018-08-22T23:24:14.960Z,0
2018-08-22T23:34:30.666Z,0
2018-08-22T23:44:45.189Z,0
2018-08-22T23:55:00.274Z,0
